Andover, CT (06232)

8:45 PM EST on November 27, 2014 (GMT -0500)
Baker Brook/Daria Dr. | Change Station
CLOSE
Current Station
Personal Weather Station
Location: Bolton, CT
Elevation: 568 ft
Nearby Weather Stations

Elev 568 ft 41.73 °N, 72.42 °W | Updated 12 minutes ago

Snow
Snow
30.2 °F
Feels Like 30 °F
N
0.0
Wind Variable Wind from West

Today
High -- | Low -- °F
--% Chance of Precip.
Yesterday
High -- | Low -- °F
Precip. -- in
6:52 AM 4:21 PM
Waxing Crescent, 35% visible
Pressure 30.01 in
Visibility 3.0 miles
Clouds Mostly Cloudy 2200 ft
Overcast 7000 ft
Windchill 30 °F
Dew Point 30 °F
Humidity 97%
Rainfall 0.11 in
Snow Depth Not available.
UV 0 out of 12
Pollen .10 out of 12
Air Quality Not available.
Flu Activity Not available.
SPECI KIJD 280131Z AUTO 35004KT 3SM -SN BR BKN022 OVC070 01/M02 A3001 RMK AO2 SNB0056 P0000 T00061017

More Conditions Fewer Conditions

Pressure 30.01 in
Visibility 3.0 miles
Clouds Mostly Cloudy 2200 ft
Overcast 7000 ft
Windchill 30 °F
Dew Point 30 °F
Humidity 97%
Rainfall 0.11 in
Snow Depth Not available.
UV 0 out of 12
Pollen .10 out of 12
Air Quality Not available.
Flu Activity Not available.
SPECI KIJD 280131Z AUTO 35004KT 3SM -SN BR BKN022 OVC070 01/M02 A3001 RMK AO2 SNB0056 P0000 T00061017

More Conditions Fewer Conditions

10-Day Weather Forecast

Almanac

Astronomy

Nov. 27, 2014 Rise Set
Actual Time
Civil Twilight
Nautical Twilight
Astronomical Twilight
Moon
Length of Visible Light
Length of Day
Tomorrow will be .
, % of the Moon is Illuminated

Today's Extremes

State Highs State Lows

Community

WunderPhotos

Upload Photos

1,774,151 photos uploaded!

WunderBlogs® & News

Nearby

Air Quality

  Air Quality AQ Index Pollutant
Not available.

Snow Depth

Station Depth Elevation

Earthquake Activity

City Distance Mag. Time & Date
Minimum magnitude displayed is 2.5.

Coastal Water Temperatures

Place Temperature

Nearby Weather Stations